createdAt,value
2023-01-23T04:46:25.068Z,501.37
2023-01-23T04:48:51.688Z,490.23
2023-01-23T04:51:18.335Z,490.00
2023-01-23T04:53:45.000Z,485.67
2023-01-23T04:56:11.593Z,492.83
2023-01-23T04:58:38.329Z,497.08
2023-01-23T05:01:06.280Z,485.45
2023-01-23T05:03:34.730Z,490.50
2023-01-23T05:06:01.463Z,477.15
2023-01-23T05:08:28.086Z,478.90
2023-01-23T05:10:54.937Z,478.50
2023-01-23T05:13:21.537Z,485.10
2023-01-23T05:15:48.249Z,480.73
2023-01-23T05:18:14.915Z,486.48
2023-01-23T05:20:41.608Z,504.35
2023-01-23T05:23:08.883Z,503.40
2023-01-23T05:25:35.598Z,505.60
2023-01-23T05:28:02.295Z,500.85
2023-01-23T05:30:28.971Z,493.95
2023-01-23T05:32:55.569Z,494.13
2023-01-23T05:35:22.183Z,504.90
2023-01-23T05:37:51.472Z,497.83
2023-01-23T05:40:19.764Z,503.52
2023-01-23T05:42:47.681Z,504.30
2023-01-23T05:45:14.469Z,507.23
2023-01-23T05:47:41.481Z,501.65
2023-01-23T05:50:12.605Z,508.00
2023-01-23T05:52:39.290Z,506.80
2023-01-23T05:55:06.337Z,508.60
2023-01-23T05:57:34.596Z,505.52
2023-01-23T06:00:01.289Z,506.98
2023-01-23T06:02:27.976Z,506.02
2023-01-23T06:04:55.856Z,502.58
2023-01-23T06:07:22.691Z,498.55
2023-01-23T06:09:49.332Z,503.23
2023-01-23T06:12:16.005Z,502.08
2023-01-23T06:14:42.629Z,497.80
2023-01-23T06:17:11.726Z,491.67
2023-01-23T06:19:38.375Z,485.98
2023-01-23T06:22:04.983Z,493.25
2023-01-23T06:24:31.646Z,487.25
2023-01-23T06:26:58.261Z,487.85
2023-01-23T06:29:24.931Z,485.77
2023-01-23T06:31:51.617Z,488.60
2023-01-23T06:34:18.293Z,490.88
2023-01-23T06:36:46.177Z,492.80
2023-01-23T06:39:15.103Z,490.08
2023-01-23T06:41:42.384Z,485.67
2023-01-23T06:44:09.032Z,493.60
2023-01-23T06:46:35.753Z,489.17
2023-01-23T06:49:05.211Z,495.55
2023-01-23T06:51:33.304Z,495.73
2023-01-23T06:54:00.085Z,497.08
2023-01-23T06:56:26.874Z,485.35
2023-01-23T06:58:53.556Z,489.42
2023-01-23T07:01:20.586Z,492.55
2023-01-23T07:03:47.602Z,495.77
2023-01-23T07:06:15.498Z,500.90
2023-01-23T07:08:42.767Z,492.67
2023-01-23T07:11:10.332Z,503.00
2023-01-23T07:13:37.098Z,503.05
2023-01-23T07:16:04.632Z,499.45
2023-01-23T07:18:32.703Z,508.02
2023-01-23T07:21:00.693Z,507.80
2023-01-23T07:23:27.500Z,506.15
2023-01-23T07:25:59.955Z,516.92
2023-01-23T07:28:27.212Z,522.38
2023-01-23T07:30:54.010Z,515.92
2023-01-23T07:33:20.662Z,514.88
2023-01-23T07:35:47.295Z,510.02
2023-01-23T07:38:13.902Z,508.92
2023-01-23T07:40:42.825Z,512.42
2023-01-23T07:43:09.667Z,513.63
2023-01-23T07:45:36.771Z,513.80
2023-01-23T07:48:04.138Z,510.00
2023-01-23T07:50:30.824Z,504.10
2023-01-23T07:52:57.496Z,503.00
2023-01-23T07:55:24.195Z,505.02
2023-01-23T07:57:50.842Z,510.43
2023-01-23T08:00:18.013Z,508.55
2023-01-23T08:02:44.929Z,508.25
2023-01-23T08:05:11.733Z,511.73
2023-01-23T08:07:38.500Z,507.27
2023-01-23T08:10:05.941Z,510.08
2023-01-23T08:12:32.565Z,507.77
2023-01-23T08:14:59.186Z,504.27
2023-01-23T08:17:25.923Z,507.90
2023-01-23T08:19:52.709Z,507.52
2023-01-23T08:22:19.355Z,519.38
2023-01-23T08:24:46.529Z,512.33
2023-01-23T08:27:13.252Z,511.15
2023-01-23T08:29:39.936Z,514.83
2023-01-23T08:32:06.669Z,518.77
2023-01-23T08:34:33.326Z,517.50
2023-01-23T08:36:59.952Z,520.20
2023-01-23T08:39:26.594Z,515.13
2023-01-23T08:41:53.255Z,506.30
2023-01-23T08:44:19.895Z,505.77
2023-01-23T08:46:46.659Z,505.43
2023-01-23T08:49:13.639Z,511.42
2023-01-23T08:51:40.278Z,516.95
2023-01-23T08:54:07.048Z,515.47
2023-01-23T08:56:33.655Z,518.15
2023-01-23T08:59:00.344Z,520.70
2023-01-23T09:01:27.629Z,537.13
2023-01-23T09:03:54.961Z,527.22
2023-01-23T09:06:23.100Z,522.30
2023-01-23T09:08:50.032Z,536.20
2023-01-23T09:11:17.877Z,527.20
2023-01-23T09:13:46.398Z,533.83
2023-01-23T09:16:13.179Z,534.67
2023-01-23T09:18:39.921Z,535.13
2023-01-23T09:21:12.781Z,537.00
2023-01-23T09:23:39.619Z,532.85
2023-01-23T09:26:08.996Z,533.53
2023-01-23T09:28:36.992Z,529.40
2023-01-23T09:31:08.761Z,521.65
2023-01-23T09:33:35.878Z,524.25
2023-01-23T09:36:03.692Z,513.47
2023-01-23T09:38:33.333Z,523.88
2023-01-23T09:41:06.725Z,523.38
2023-01-23T09:43:33.353Z,523.10
2023-01-23T09:46:09.003Z,526.73
2023-01-23T09:48:44.223Z,530.78
2023-01-23T09:51:26.226Z,528.20
2023-01-23T09:53:58.737Z,530.60
2023-01-23T09:56:41.203Z,529.03
2023-01-23T09:59:07.734Z,534.58
2023-01-23T10:01:34.416Z,538.75
2023-01-23T10:04:01.891Z,534.13
2023-01-23T10:06:32.092Z,532.30
2023-01-23T10:09:17.399Z,547.40
2023-01-23T10:12:17.141Z,533.65
2023-01-23T10:15:07.902Z,539.13
2023-01-23T10:17:52.623Z,529.83
2023-01-23T10:20:39.330Z,535.85
2023-01-23T10:23:24.801Z,542.30
2023-01-23T10:25:51.631Z,533.35
2023-01-23T10:28:38.828Z,534.70
2023-01-23T10:31:20.045Z,532.33
2023-01-23T10:33:54.443Z,536.03
2023-01-23T10:36:54.835Z,544.25
2023-01-23T10:39:34.767Z,547.38
2023-01-23T10:42:02.697Z,543.58
2023-01-23T10:44:29.969Z,541.88
2023-01-23T10:47:01.880Z,538.63
2023-01-23T10:49:40.176Z,544.20
2023-01-23T10:52:31.750Z,543.85
2023-01-23T10:54:58.765Z,545.83
2023-01-23T10:57:30.966Z,534.60
2023-01-23T11:00:04.965Z,532.30
2023-01-23T11:02:37.300Z,534.75
2023-01-23T11:05:52.455Z,535.30
2023-01-23T11:08:29.297Z,552.77
2023-01-23T11:11:15.893Z,553.70
2023-01-23T11:13:44.261Z,551.53
2023-01-23T11:16:21.804Z,539.33
2023-01-23T11:19:04.635Z,554.08
2023-01-23T11:21:37.043Z,549.15
2023-01-23T11:24:38.125Z,546.78
2023-01-23T11:27:30.885Z,546.15
2023-01-23T11:30:04.334Z,546.80
2023-01-23T11:32:35.313Z,536.75
2023-01-23T11:35:15.684Z,542.03
2023-01-23T11:37:42.706Z,546.35
2023-01-23T11:40:20.371Z,544.28
2023-01-23T11:42:47.584Z,542.70
2023-01-23T11:45:50.479Z,548.35
2023-01-23T11:48:20.292Z,546.85
2023-01-23T11:50:55.957Z,542.13
2023-01-23T11:53:41.788Z,540.85
2023-01-23T11:56:34.898Z,542.72
2023-01-23T11:59:21.865Z,553.65
2023-01-23T12:02:03.073Z,559.00
2023-01-23T12:04:57.535Z,557.58
2023-01-23T12:07:25.319Z,557.17
2023-01-23T12:10:26.281Z,568.75
2023-01-23T12:13:32.015Z,566.60
2023-01-23T12:16:15.029Z,567.08
2023-01-23T12:18:49.049Z,581.85
2023-01-23T12:21:22.752Z,569.85
2023-01-23T12:24:00.887Z,567.17
2023-01-23T12:26:31.027Z,561.00
2023-01-23T12:29:08.136Z,566.83
2023-01-23T12:31:37.784Z,569.35
2023-01-23T12:34:16.300Z,569.97
2023-01-23T12:37:29.898Z,574.67
2023-01-23T12:40:12.402Z,563.23
2023-01-23T12:42:55.594Z,568.67
2023-01-23T12:45:25.307Z,558.30
2023-01-23T12:48:12.108Z,560.72
2023-01-23T12:51:20.599Z,566.15
2023-01-23T12:53:51.231Z,562.50
2023-01-23T12:56:41.698Z,565.30
2023-01-23T12:59:20.607Z,556.38
2023-01-23T13:02:06.253Z,560.53
2023-01-23T13:05:11.971Z,565.50
2023-01-23T13:08:10.230Z,556.77
2023-01-23T13:11:21.837Z,558.77
2023-01-23T13:13:48.651Z,550.08
2023-01-23T13:16:20.048Z,548.40
2023-01-23T13:19:16.245Z,551.90
2023-01-23T13:22:04.759Z,553.83
2023-01-23T13:25:12.485Z,565.25
2023-01-23T13:27:58.768Z,549.47
2023-01-23T13:30:36.200Z,554.90
2023-01-23T13:33:05.864Z,542.72
2023-01-23T13:35:47.447Z,549.55
2023-01-23T13:38:25.386Z,557.05
2023-01-23T13:41:14.460Z,553.40
2023-01-23T13:43:55.870Z,559.40
2023-01-23T13:46:25.285Z,563.38
2023-01-23T14:21:46.273Z,566.13
2023-01-23T14:24:23.353Z,563.97
2023-01-23T14:26:52.732Z,568.42
2023-01-23T14:29:25.077Z,568.15
2023-01-23T14:31:52.463Z,552.72
2023-01-23T14:34:21.813Z,544.88
2023-01-23T14:37:10.592Z,564.70
2023-01-23T14:39:39.776Z,557.90
2023-01-23T14:42:13.849Z,564.55
2023-01-23T14:44:46.318Z,563.53
2023-01-23T14:47:25.386Z,561.58
2023-01-23T14:49:52.561Z,575.67
2023-01-23T14:52:25.742Z,566.47
2023-01-23T14:54:54.342Z,570.97
2023-01-23T14:57:24.020Z,571.72
2023-01-23T14:59:54.764Z,563.30
2023-01-23T15:02:36.383Z,556.17
2023-01-23T15:05:12.132Z,558.73
2023-01-23T15:07:51.044Z,553.50
2023-01-23T15:10:23.508Z,563.03
2023-01-23T15:13:05.825Z,566.75
2023-01-23T15:15:34.438Z,564.92
2023-01-23T15:18:02.050Z,564.65
2023-01-23T15:20:41.220Z,575.33
2023-01-23T15:23:37.132Z,576.03
2023-01-23T15:26:14.092Z,579.60
2023-01-23T15:28:40.953Z,585.58
2023-01-23T15:31:34.505Z,585.27
2023-01-23T15:34:16.540Z,585.65
2023-01-23T15:36:47.578Z,591.33
2023-01-23T15:39:24.965Z,589.08
2023-01-23T15:42:00.319Z,579.25
2023-01-23T15:44:29.215Z,583.35
2023-01-23T15:46:57.190Z,586.22
2023-01-23T15:49:26.161Z,581.15
2023-01-23T15:51:59.586Z,596.00
2023-01-23T15:54:36.203Z,593.95
2023-01-23T15:57:08.894Z,602.65
2023-01-23T15:59:36.366Z,591.15
2023-01-23T16:02:03.317Z,591.90
2023-01-23T16:04:30.008Z,595.60
2023-01-23T16:06:59.461Z,589.20
2023-01-23T16:09:32.647Z,588.65
2023-01-23T16:12:00.338Z,582.22
2023-01-23T16:14:27.505Z,592.70
2023-01-23T16:16:55.318Z,589.75
2023-01-23T16:19:23.298Z,580.97
2023-01-23T16:22:03.908Z,590.10
2023-01-23T16:24:39.084Z,584.97
2023-01-23T16:27:06.947Z,593.08
2023-01-23T16:29:34.594Z,592.42
2023-01-23T16:32:02.997Z,581.05
2023-01-23T16:34:29.725Z,589.90
2023-01-23T16:36:59.137Z,584.53
2023-01-23T16:39:29.532Z,576.55
2023-01-23T16:41:56.234Z,571.58
2023-01-23T16:44:23.952Z,576.80
2023-01-23T16:46:52.667Z,575.70
2023-01-23T16:49:20.095Z,587.85
2023-01-23T16:51:56.225Z,569.17
2023-01-23T16:54:23.561Z,575.47
2023-01-23T16:56:51.574Z,574.88
2023-01-23T16:59:28.243Z,577.30
2023-01-23T17:01:55.595Z,577.92
2023-01-23T17:04:22.431Z,573.00
2023-01-23T17:06:50.063Z,582.33
2023-01-23T17:09:17.410Z,576.78
2023-01-23T17:11:48.291Z,571.53
2023-01-23T17:14:26.051Z,574.10
2023-01-23T17:16:55.618Z,582.55
2023-01-23T17:19:31.748Z,585.15
2023-01-23T17:22:00.386Z,579.90
2023-01-23T17:24:27.455Z,583.33
2023-01-23T17:26:54.151Z,583.40
2023-01-23T17:29:21.152Z,590.03
2023-01-23T17:31:48.794Z,584.45
2023-01-23T17:34:25.895Z,580.92
2023-01-23T17:36:54.929Z,581.22
2023-01-23T17:39:21.865Z,582.72
2023-01-23T17:41:48.589Z,578.40
2023-01-23T17:44:15.199Z,586.80
2023-01-23T17:46:42.425Z,596.03
2023-01-23T17:49:27.970Z,596.45
2023-01-23T17:51:55.884Z,602.92
2023-01-23T17:54:22.858Z,598.30
2023-01-23T17:56:49.715Z,608.70
2023-01-23T17:59:16.334Z,597.53
2023-01-23T18:01:43.176Z,602.67
2023-01-23T18:04:17.294Z,592.92
2023-01-23T18:06:44.437Z,594.92
2023-01-23T18:09:11.719Z,589.58
2023-01-23T18:11:42.499Z,590.00
2023-01-23T18:14:39.501Z,591.05
2023-01-23T18:17:58.665Z,589.53
2023-01-23T18:20:25.969Z,581.47
2023-01-23T18:22:53.231Z,586.70
2023-01-23T18:25:21.623Z,581.80
2023-01-23T18:27:53.177Z,588.55
2023-01-23T18:30:45.099Z,587.23
2023-01-23T18:33:33.250Z,585.97
2023-01-23T18:36:18.182Z,595.78
2023-01-23T18:39:18.216Z,591.13
2023-01-23T18:42:12.816Z,582.25
2023-01-23T18:44:44.201Z,608.33
2023-01-23T18:47:16.413Z,613.65
2023-01-23T18:49:43.432Z,609.35
2023-01-23T18:52:51.783Z,600.17
2023-01-23T18:55:57.481Z,603.72
2023-01-23T18:58:41.939Z,596.70
2023-01-23T19:01:26.392Z,620.53
2023-01-23T19:03:54.959Z,619.83
2023-01-23T19:06:24.437Z,629.67
2023-01-23T19:08:53.505Z,609.05
2023-01-23T19:11:38.929Z,592.80
2023-01-23T19:14:08.607Z,592.10
2023-01-23T19:16:42.206Z,600.38
2023-01-23T19:19:15.619Z,603.00
2023-01-23T19:21:45.549Z,610.10
2023-01-23T19:24:12.330Z,595.95
2023-01-23T19:26:41.819Z,598.05
2023-01-23T19:29:20.909Z,597.67
2023-01-23T19:32:03.766Z,602.78
2023-01-23T19:34:31.397Z,605.00
2023-01-23T19:36:58.035Z,595.58
2023-01-23T19:39:24.697Z,603.00
2023-01-23T19:41:52.804Z,605.35
2023-01-23T19:44:22.335Z,593.47
2023-01-23T19:46:49.060Z,589.90
2023-01-23T19:49:15.774Z,593.15
2023-01-23T19:51:42.787Z,589.05
2023-01-23T19:54:14.480Z,593.28
2023-01-23T19:56:42.257Z,595.20
2023-01-23T19:59:09.236Z,599.55
2023-01-23T20:01:38.643Z,604.63
2023-01-23T20:04:12.911Z,590.37
2023-01-23T20:06:40.734Z,601.53
2023-01-23T20:09:08.538Z,594.20
2023-01-23T20:11:36.356Z,597.78
2023-01-23T20:14:03.390Z,607.97
2023-01-23T20:16:30.195Z,601.17
2023-01-23T20:18:56.867Z,623.57
2023-01-23T20:21:24.867Z,633.95
2023-01-23T20:23:51.848Z,621.95
2023-01-23T20:26:21.046Z,604.97
2023-01-23T20:28:49.685Z,623.25
2023-01-23T20:31:16.952Z,623.00
2023-01-23T20:33:43.681Z,618.83
2023-01-23T20:36:11.161Z,622.35
2023-01-23T20:38:39.458Z,625.78
2023-01-23T20:41:09.014Z,626.03
2023-01-23T20:43:35.698Z,631.83
2023-01-23T20:46:06.163Z,630.40
2023-01-23T20:48:37.429Z,637.05
2023-01-23T20:51:05.520Z,625.90
2023-01-23T20:53:34.839Z,618.65
2023-01-23T20:56:04.287Z,628.78
2023-01-23T20:58:51.147Z,638.45
2023-01-23T21:01:19.662Z,636.77
2023-01-23T21:03:48.315Z,629.50
2023-01-23T21:06:15.801Z,628.70
2023-01-23T21:08:43.105Z,624.38
2023-01-23T21:11:15.113Z,623.22
2023-01-23T21:13:42.470Z,619.90
2023-01-23T21:16:15.289Z,609.95
2023-01-23T21:18:46.165Z,604.92
2023-01-23T21:21:15.729Z,596.35
2023-01-23T21:23:42.426Z,592.53
2023-01-23T21:26:09.393Z,594.05
2023-01-23T21:28:36.727Z,602.42
2023-01-23T21:31:34.064Z,610.40
2023-01-23T21:34:06.529Z,595.97
2023-01-23T21:36:33.294Z,606.38
2023-01-23T21:38:59.991Z,599.92
2023-01-23T21:41:26.725Z,602.35
2023-01-23T21:43:53.334Z,607.78
2023-01-23T21:46:20.090Z,604.20
2023-01-23T21:48:46.723Z,597.50
2023-01-23T21:51:16.301Z,592.63
2023-01-23T21:53:45.336Z,600.90
2023-01-23T21:56:13.973Z,605.45
2023-01-23T21:58:42.371Z,605.67
2023-01-23T22:01:32.792Z,609.65
2023-01-23T22:04:14.847Z,610.25
2023-01-23T22:06:43.876Z,606.58
2023-01-23T22:09:15.524Z,607.33
2023-01-23T22:11:42.642Z,608.90
2023-01-23T22:14:11.210Z,607.30
2023-01-23T22:16:48.444Z,602.17
2023-01-23T22:19:17.850Z,596.58
2023-01-23T22:21:46.334Z,599.55
2023-01-23T22:24:13.634Z,602.63
2023-01-23T22:26:40.312Z,599.42
2023-01-23T22:29:07.211Z,599.17
2023-01-23T22:31:33.997Z,607.60
2023-01-23T22:34:00.791Z,597.25
2023-01-23T22:36:27.389Z,603.63
2023-01-23T22:38:55.336Z,595.95
2023-01-23T22:41:22.865Z,595.17
2023-01-23T22:43:54.348Z,589.80
2023-01-23T22:46:21.873Z,596.27
2023-01-23T22:48:48.996Z,583.80
2023-01-23T22:51:18.476Z,583.72
2023-01-23T22:53:45.323Z,588.00
2023-01-23T22:56:12.822Z,584.28
2023-01-23T22:58:39.669Z,592.30
2023-01-23T23:01:07.211Z,582.00
2023-01-23T23:03:34.866Z,589.88
2023-01-23T23:06:07.025Z,592.80
2023-01-23T23:08:34.699Z,595.75
2023-01-23T23:11:03.305Z,586.20
2023-01-23T23:13:32.016Z,592.95
2023-01-23T23:16:03.892Z,596.53
2023-01-23T23:18:30.760Z,588.30
2023-01-23T23:21:05.019Z,596.83
2023-01-23T23:23:31.697Z,586.00
2023-01-23T23:25:58.378Z,582.85
2023-01-23T23:28:26.615Z,591.33
2023-01-23T23:30:54.012Z,585.70
2023-01-23T23:33:21.626Z,590.97
2023-01-23T23:35:48.509Z,587.30
2023-01-23T23:38:16.007Z,587.40
2023-01-23T23:40:42.633Z,584.67
2023-01-23T23:43:09.676Z,584.85
2023-01-23T23:45:36.369Z,581.92
2023-01-23T23:48:03.236Z,582.95
2023-01-23T23:50:30.101Z,582.63
2023-01-23T23:52:56.728Z,587.90
2023-01-23T23:55:23.630Z,581.75
2023-01-23T23:57:50.399Z,581.95
